sensor_id;sensor_type;location;lat;lon;timestamp;temperature;humidity
53880;DHT22;39791;53.184;5.486;2022-09-09T00:00:33;17.00;99.90
53880;DHT22;39791;53.184;5.486;2022-09-09T00:05:34;16.70;99.90
53880;DHT22;39791;53.184;5.486;2022-09-09T00:08:03;17.30;99.90
53880;DHT22;39791;53.184;5.486;2022-09-09T00:10:39;17.50;99.90
53880;DHT22;39791;53.184;5.486;2022-09-09T00:16:27;17.40;99.90
53880;DHT22;39791;53.184;5.486;2022-09-09T00:19:09;17.60;99.90
53880;DHT22;39791;53.184;5.486;2022-09-09T00:21:46;16.80;99.90
53880;DHT22;39791;53.184;5.486;2022-09-09T00:24:26;17.80;99.90
53880;DHT22;39791;53.184;5.486;2022-09-09T00:26:56;17.80;99.90
53880;DHT22;39791;53.184;5.486;2022-09-09T00:29:36;16.70;99.90
53880;DHT22;39791;53.184;5.486;2022-09-09T00:32:16;17.70;99.90
53880;DHT22;39791;53.184;5.486;2022-09-09T00:35:05;17.30;99.90
53880;DHT22;39791;53.184;5.486;2022-09-09T00:37:41;17.80;99.90
53880;DHT22;39791;53.184;5.486;2022-09-09T00:40:22;17.70;99.90
53880;DHT22;39791;53.184;5.486;2022-09-09T00:42:54;17.60;99.90
53880;DHT22;39791;53.184;5.486;2022-09-09T00:48:11;17.70;99.90
53880;DHT22;39791;53.184;5.486;2022-09-09T00:50:49;17.00;99.90
53880;DHT22;39791;53.184;5.486;2022-09-09T00:53:31;16.80;99.90
53880;DHT22;39791;53.184;5.486;2022-09-09T00:56:18;17.70;99.90
53880;DHT22;39791;53.184;5.486;2022-09-09T00:59:16;17.60;99.90
53880;DHT22;39791;53.184;5.486;2022-09-09T01:01:45;16.50;99.90
53880;DHT22;39791;53.184;5.486;2022-09-09T01:04:17;16.60;99.90
53880;DHT22;39791;53.184;5.486;2022-09-09T01:06:51;17.50;99.90
53880;DHT22;39791;53.184;5.486;2022-09-09T01:09:22;16.60;99.90
53880;DHT22;39791;53.184;5.486;2022-09-09T01:12:25;16.80;99.90
53880;DHT22;39791;53.184;5.486;2022-09-09T01:14:59;16.50;99.90
53880;DHT22;39791;53.184;5.486;2022-09-09T01:17:44;16.80;99.90
53880;DHT22;39791;53.184;5.486;2022-09-09T01:20:24;17.80;99.90
53880;DHT22;39791;53.184;5.486;2022-09-09T01:26:12;16.80;99.90
53880;DHT22;39791;53.184;5.486;2022-09-09T01:28:41;17.70;99.90
53880;DHT22;39791;53.184;5.486;2022-09-09T01:31:10;17.10;99.90
53880;DHT22;39791;53.184;5.486;2022-09-09T01:33:37;17.80;99.90
53880;DHT22;39791;53.184;5.486;2022-09-09T01:38:32;17.10;99.90
53880;DHT22;39791;53.184;5.486;2022-09-09T01:40:58;17.80;99.90
53880;DHT22;39791;53.184;5.486;2022-09-09T01:43:25;17.60;99.90
53880;DHT22;39791;53.184;5.486;2022-09-09T01:45:53;16.60;99.90
53880;DHT22;39791;53.184;5.486;2022-09-09T01:48:21;16.50;99.90
53880;DHT22;39791;53.184;5.486;2022-09-09T01:50:48;17.30;99.90
53880;DHT22;39791;53.184;5.486;2022-09-09T01:53:15;16.60;99.90
53880;DHT22;39791;53.184;5.486;2022-09-09T01:56:28;18.00;99.90
53880;DHT22;39791;53.184;5.486;2022-09-09T01:59:03;17.60;99.90
53880;DHT22;39791;53.184;5.486;2022-09-09T02:04:35;16.70;99.90
53880;DHT22;39791;53.184;5.486;2022-09-09T02:07:01;17.40;99.90
53880;DHT22;39791;53.184;5.486;2022-09-09T02:09:29;17.10;99.90
53880;DHT22;39791;53.184;5.486;2022-09-09T02:12:14;17.80;99.90
53880;DHT22;39791;53.184;5.486;2022-09-09T02:14:49;17.80;99.90
53880;DHT22;39791;53.184;5.486;2022-09-09T02:17:21;17.00;99.90
53880;DHT22;39791;53.184;5.486;2022-09-09T02:19:54;17.90;99.90
53880;DHT22;39791;53.184;5.486;2022-09-09T02:22:24;17.70;99.90
53880;DHT22;39791;53.184;5.486;2022-09-09T02:24:53;17.80;99.90
53880;DHT22;39791;53.184;5.486;2022-09-09T02:27:22;17.80;99.90
53880;DHT22;39791;53.184;5.486;2022-09-09T02:29:49;17.70;99.90
53880;DHT22;39791;53.184;5.486;2022-09-09T02:32:21;16.70;99.90
53880;DHT22;39791;53.184;5.486;2022-09-09T02:34:49;17.20;99.90
53880;DHT22;39791;53.184;5.486;2022-09-09T02:37:19;17.70;99.90
53880;DHT22;39791;53.184;5.486;2022-09-09T02:39:46;17.80;99.90
53880;DHT22;39791;53.184;5.486;2022-09-09T02:42:12;16.70;99.90
53880;DHT22;39791;53.184;5.486;2022-09-09T02:44:40;17.70;99.90
53880;DHT22;39791;53.184;5.486;2022-09-09T02:47:15;16.80;99.90
53880;DHT22;39791;53.184;5.486;2022-09-09T02:49:51;16.80;99.90
53880;DHT22;39791;53.184;5.486;2022-09-09T02:52:27;16.80;99.90
53880;DHT22;39791;53.184;5.486;2022-09-09T02:54:59;17.30;99.90
53880;DHT22;39791;53.184;5.486;2022-09-09T02:57:30;18.10;99.90
53880;DHT22;39791;53.184;5.486;2022-09-09T02:59:58;17.40;99.90
53880;DHT22;39791;53.184;5.486;2022-09-09T03:02:24;18.30;99.90
53880;DHT22;39791;53.184;5.486;2022-09-09T03:04:50;17.20;99.90
53880;DHT22;39791;53.184;5.486;2022-09-09T03:07:18;17.60;99.90
53880;DHT22;39791;53.184;5.486;2022-09-09T03:09:44;17.20;99.90
53880;DHT22;39791;53.184;5.486;2022-09-09T03:12:10;18.20;99.90
53880;DHT22;39791;53.184;5.486;2022-09-09T03:14:37;17.80;99.90
53880;DHT22;39791;53.184;5.486;2022-09-09T03:17:04;17.50;99.90
53880;DHT22;39791;53.184;5.486;2022-09-09T03:19:29;17.10;99.90
53880;DHT22;39791;53.184;5.486;2022-09-09T03:21:55;18.00;99.90
53880;DHT22;39791;53.184;5.486;2022-09-09T03:24:21;17.50;99.90
53880;DHT22;39791;53.184;5.486;2022-09-09T03:26:48;17.70;99.90
53880;DHT22;39791;53.184;5.486;2022-09-09T03:29:14;18.10;99.90
53880;DHT22;39791;53.184;5.486;2022-09-09T03:31:40;17.20;99.90
53880;DHT22;39791;53.184;5.486;2022-09-09T03:34:06;18.20;99.90
53880;DHT22;39791;53.184;5.486;2022-09-09T03:36:32;17.40;99.90
53880;DHT22;39791;53.184;5.486;2022-09-09T03:38:58;17.20;99.90
53880;DHT22;39791;53.184;5.486;2022-09-09T03:41:25;18.40;99.90
53880;DHT22;39791;53.184;5.486;2022-09-09T03:43:51;17.20;99.90
53880;DHT22;39791;53.184;5.486;2022-09-09T03:46:18;17.80;99.90
53880;DHT22;39791;53.184;5.486;2022-09-09T03:48:44;17.40;99.90
53880;DHT22;39791;53.184;5.486;2022-09-09T03:51:09;17.40;99.90
53880;DHT22;39791;53.184;5.486;2022-09-09T03:53:36;17.40;99.90
53880;DHT22;39791;53.184;5.486;2022-09-09T03:56:03;18.10;99.90
53880;DHT22;39791;53.184;5.486;2022-09-09T03:58:29;18.60;99.90
53880;DHT22;39791;53.184;5.486;2022-09-09T04:00:57;18.60;99.90
53880;DHT22;39791;53.184;5.486;2022-09-09T04:03:24;17.50;99.90
53880;DHT22;39791;53.184;5.486;2022-09-09T04:05:51;17.50;99.90
53880;DHT22;39791;53.184;5.486;2022-09-09T04:08:17;18.10;99.90
53880;DHT22;39791;53.184;5.486;2022-09-09T04:10:48;18.50;99.90
53880;DHT22;39791;53.184;5.486;2022-09-09T04:13:14;17.60;99.90
53880;DHT22;39791;53.184;5.486;2022-09-09T04:15:44;17.40;99.90
53880;DHT22;39791;53.184;5.486;2022-09-09T04:18:10;17.60;99.90
53880;DHT22;39791;53.184;5.486;2022-09-09T04:20:37;18.40;99.90
53880;DHT22;39791;53.184;5.486;2022-09-09T04:23:03;17.90;99.90
53880;DHT22;39791;53.184;5.486;2022-09-09T04:25:29;17.20;99.90
53880;DHT22;39791;53.184;5.486;2022-09-09T04:27:55;18.10;99.90
53880;DHT22;39791;53.184;5.486;2022-09-09T04:30:22;18.40;99.90
53880;DHT22;39791;53.184;5.486;2022-09-09T04:32:47;18.40;99.90
53880;DHT22;39791;53.184;5.486;2022-09-09T04:35:13;18.20;99.90
53880;DHT22;39791;53.184;5.486;2022-09-09T04:37:38;17.30;99.90
53880;DHT22;39791;53.184;5.486;2022-09-09T04:40:05;18.00;99.90
53880;DHT22;39791;53.184;5.486;2022-09-09T04:42:38;18.20;99.90
53880;DHT22;39791;53.184;5.486;2022-09-09T04:45:05;18.30;99.90
53880;DHT22;39791;53.184;5.486;2022-09-09T04:47:31;17.70;99.90
53880;DHT22;39791;53.184;5.486;2022-09-09T04:49:57;17.30;99.90
53880;DHT22;39791;53.184;5.486;2022-09-09T04:52:22;17.80;99.90
53880;DHT22;39791;53.184;5.486;2022-09-09T04:54:48;18.10;99.90
53880;DHT22;39791;53.184;5.486;2022-09-09T04:57:13;18.00;99.90
53880;DHT22;39791;53.184;5.486;2022-09-09T04:59:39;17.10;99.90
53880;DHT22;39791;53.184;5.486;2022-09-09T05:02:05;18.00;99.90
53880;DHT22;39791;53.184;5.486;2022-09-09T05:04:31;17.20;99.90
53880;DHT22;39791;53.184;5.486;2022-09-09T05:06:56;17.40;99.90
53880;DHT22;39791;53.184;5.486;2022-09-09T05:09:22;17.80;99.90
53880;DHT22;39791;53.184;5.486;2022-09-09T05:11:48;18.00;99.90
53880;DHT22;39791;53.184;5.486;2022-09-09T05:14:14;16.80;99.90
53880;DHT22;39791;53.184;5.486;2022-09-09T05:16:40;17.40;99.90
53880;DHT22;39791;53.184;5.486;2022-09-09T05:19:05;18.10;99.90
53880;DHT22;39791;53.184;5.486;2022-09-09T05:21:33;17.30;99.90
53880;DHT22;39791;53.184;5.486;2022-09-09T05:23:59;18.10;99.90
53880;DHT22;39791;53.184;5.486;2022-09-09T05:26:26;16.90;99.90
53880;DHT22;39791;53.184;5.486;2022-09-09T05:28:51;17.00;99.90
53880;DHT22;39791;53.184;5.486;2022-09-09T05:31:18;16.70;99.90
53880;DHT22;39791;53.184;5.486;2022-09-09T05:33:45;16.80;99.90
53880;DHT22;39791;53.184;5.486;2022-09-09T05:36:16;17.30;99.90
53880;DHT22;39791;53.184;5.486;2022-09-09T05:38:42;17.00;99.90
53880;DHT22;39791;53.184;5.486;2022-09-09T05:41:10;16.80;99.90
53880;DHT22;39791;53.184;5.486;2022-09-09T05:43:37;18.10;99.90
53880;DHT22;39791;53.184;5.486;2022-09-09T05:46:08;17.00;99.90
53880;DHT22;39791;53.184;5.486;2022-09-09T05:48:39;16.80;99.90
53880;DHT22;39791;53.184;5.486;2022-09-09T05:51:07;18.20;99.90
53880;DHT22;39791;53.184;5.486;2022-09-09T05:53:34;17.80;99.90
53880;DHT22;39791;53.184;5.486;2022-09-09T05:56:05;17.00;99.90
53880;DHT22;39791;53.184;5.486;2022-09-09T05:58:34;17.30;99.90
53880;DHT22;39791;53.184;5.486;2022-09-09T06:01:08;18.30;99.90
53880;DHT22;39791;53.184;5.486;2022-09-09T06:03:38;18.10;99.90
53880;DHT22;39791;53.184;5.486;2022-09-09T06:06:06;18.20;99.90
53880;DHT22;39791;53.184;5.486;2022-09-09T06:08:34;18.70;99.90
53880;DHT22;39791;53.184;5.486;2022-09-09T06:11:08;18.60;99.90
53880;DHT22;39791;53.184;5.486;2022-09-09T06:13:34;18.50;99.90
53880;DHT22;39791;53.184;5.486;2022-09-09T06:16:00;17.50;99.90
53880;DHT22;39791;53.184;5.486;2022-09-09T06:18:26;17.40;99.90
53880;DHT22;39791;53.184;5.486;2022-09-09T06:21:03;18.30;99.90
53880;DHT22;39791;53.184;5.486;2022-09-09T06:23:30;18.40;99.90
53880;DHT22;39791;53.184;5.486;2022-09-09T06:28:32;17.80;99.90
53880;DHT22;39791;53.184;5.486;2022-09-09T06:31:03;17.90;99.90
53880;DHT22;39791;53.184;5.486;2022-09-09T06:33:37;18.60;99.90
53880;DHT22;39791;53.184;5.486;2022-09-09T06:36:11;17.80;99.90
53880;DHT22;39791;53.184;5.486;2022-09-09T06:38:37;18.90;99.90
53880;DHT22;39791;53.184;5.486;2022-09-09T06:41:03;18.40;99.90
53880;DHT22;39791;53.184;5.486;2022-09-09T06:43:29;18.10;99.90
53880;DHT22;39791;53.184;5.486;2022-09-09T06:45:57;18.50;99.90
53880;DHT22;39791;53.184;5.486;2022-09-09T06:48:23;17.90;99.90
53880;DHT22;39791;53.184;5.486;2022-09-09T06:50:51;17.80;99.90
53880;DHT22;39791;53.184;5.486;2022-09-09T06:53:25;17.90;99.90
53880;DHT22;39791;53.184;5.486;2022-09-09T06:55:51;19.10;99.90
53880;DHT22;39791;53.184;5.486;2022-09-09T06:58:17;19.40;99.90
53880;DHT22;39791;53.184;5.486;2022-09-09T07:00:42;18.40;99.90
53880;DHT22;39791;53.184;5.486;2022-09-09T07:03:10;19.00;99.90
53880;DHT22;39791;53.184;5.486;2022-09-09T07:05:35;18.10;99.90
53880;DHT22;39791;53.184;5.486;2022-09-09T07:08:01;18.50;99.90
53880;DHT22;39791;53.184;5.486;2022-09-09T07:10:27;18.60;99.90
53880;DHT22;39791;53.184;5.486;2022-09-09T07:12:53;19.40;99.90
53880;DHT22;39791;53.184;5.486;2022-09-09T07:15:19;18.50;99.90
53880;DHT22;39791;53.184;5.486;2022-09-09T07:17:45;19.40;99.90
53880;DHT22;39791;53.184;5.486;2022-09-09T07:20:11;19.60;99.90
53880;DHT22;39791;53.184;5.486;2022-09-09T07:22:37;19.50;99.90
53880;DHT22;39791;53.184;5.486;2022-09-09T07:25:03;19.70;99.90
53880;DHT22;39791;53.184;5.486;2022-09-09T07:27:29;19.80;99.90
53880;DHT22;39791;53.184;5.486;2022-09-09T07:29:55;19.30;99.90
53880;DHT22;39791;53.184;5.486;2022-09-09T07:32:21;19.60;99.90
53880;DHT22;39791;53.184;5.486;2022-09-09T07:34:46;19.20;99.90
53880;DHT22;39791;53.184;5.486;2022-09-09T07:37:12;20.10;99.90
53880;DHT22;39791;53.184;5.486;2022-09-09T07:39:39;20.20;99.90
53880;DHT22;39791;53.184;5.486;2022-09-09T07:42:05;19.60;99.90
53880;DHT22;39791;53.184;5.486;2022-09-09T07:44:31;19.80;99.90
53880;DHT22;39791;53.184;5.486;2022-09-09T07:47:00;20.30;99.90
53880;DHT22;39791;53.184;5.486;2022-09-09T07:49:26;20.20;99.90
53880;DHT22;39791;53.184;5.486;2022-09-09T07:51:52;20.50;99.90
53880;DHT22;39791;53.184;5.486;2022-09-09T07:54:18;20.70;99.90
53880;DHT22;39791;53.184;5.486;2022-09-09T07:56:49;20.90;99.90
53880;DHT22;39791;53.184;5.486;2022-09-09T07:59:15;21.00;99.90
53880;DHT22;39791;53.184;5.486;2022-09-09T08:01:43;20.90;99.90
53880;DHT22;39791;53.184;5.486;2022-09-09T08:04:16;20.80;99.90
53880;DHT22;39791;53.184;5.486;2022-09-09T08:06:54;20.70;99.90
53880;DHT22;39791;53.184;5.486;2022-09-09T08:09:20;21.10;99.90
53880;DHT22;39791;53.184;5.486;2022-09-09T08:11:46;21.00;99.90
53880;DHT22;39791;53.184;5.486;2022-09-09T08:14:12;20.50;99.90
53880;DHT22;39791;53.184;5.486;2022-09-09T08:16:40;20.60;99.90
53880;DHT22;39791;53.184;5.486;2022-09-09T08:19:07;20.60;99.90
53880;DHT22;39791;53.184;5.486;2022-09-09T08:21:34;20.70;99.90
53880;DHT22;39791;53.184;5.486;2022-09-09T08:24:02;21.20;99.90
53880;DHT22;39791;53.184;5.486;2022-09-09T08:26:31;21.40;99.90
53880;DHT22;39791;53.184;5.486;2022-09-09T08:28:58;21.30;99.90
53880;DHT22;39791;53.184;5.486;2022-09-09T08:33:53;21.20;99.90
53880;DHT22;39791;53.184;5.486;2022-09-09T08:36:22;21.10;99.90
53880;DHT22;39791;53.184;5.486;2022-09-09T08:38:52;21.10;99.90
53880;DHT22;39791;53.184;5.486;2022-09-09T08:41:30;21.10;99.90
53880;DHT22;39791;53.184;5.486;2022-09-09T08:44:13;20.80;99.90
53880;DHT22;39791;53.184;5.486;2022-09-09T08:52:38;20.80;99.90
53880;DHT22;39791;53.184;5.486;2022-09-09T08:55:26;20.90;99.90
53880;DHT22;39791;53.184;5.486;2022-09-09T08:57:57;20.90;99.90
53880;DHT22;39791;53.184;5.486;2022-09-09T09:00:34;20.80;99.90
53880;DHT22;39791;53.184;5.486;2022-09-09T09:05:59;20.70;99.90
53880;DHT22;39791;53.184;5.486;2022-09-09T09:11:04;20.80;99.90
53880;DHT22;39791;53.184;5.486;2022-09-09T09:13:45;21.10;99.90
53880;DHT22;39791;53.184;5.486;2022-09-09T09:16:27;21.20;99.90
53880;DHT22;39791;53.184;5.486;2022-09-09T09:18:54;21.30;99.90
53880;DHT22;39791;53.184;5.486;2022-09-09T09:21:39;21.50;99.90
53880;DHT22;39791;53.184;5.486;2022-09-09T09:24:21;22.10;99.90
53880;DHT22;39791;53.184;5.486;2022-09-09T09:26:48;21.80;99.90
53880;DHT22;39791;53.184;5.486;2022-09-09T09:29:17;21.80;99.90
53880;DHT22;39791;53.184;5.486;2022-09-09T09:31:47;21.80;99.90
53880;DHT22;39791;53.184;5.486;2022-09-09T09:34:14;22.40;99.90
53880;DHT22;39791;53.184;5.486;2022-09-09T09:36:41;22.60;99.90
53880;DHT22;39791;53.184;5.486;2022-09-09T09:39:08;22.80;99.90
53880;DHT22;39791;53.184;5.486;2022-09-09T09:41:40;22.60;99.90
53880;DHT22;39791;53.184;5.486;2022-09-09T09:44:31;22.20;99.90
53880;DHT22;39791;53.184;5.486;2022-09-09T09:47:18;22.00;99.90
53880;DHT22;39791;53.184;5.486;2022-09-09T09:49:54;22.20;99.90
53880;DHT22;39791;53.184;5.486;2022-09-09T09:52:27;22.50;99.90
53880;DHT22;39791;53.184;5.486;2022-09-09T09:54:56;22.50;99.90
53880;DHT22;39791;53.184;5.486;2022-09-09T09:57:26;22.60;99.90
53880;DHT22;39791;53.184;5.486;2022-09-09T10:00:17;22.90;99.90
53880;DHT22;39791;53.184;5.486;2022-09-09T10:02:44;22.40;99.90
53880;DHT22;39791;53.184;5.486;2022-09-09T10:07:59;22.10;99.90
53880;DHT22;39791;53.184;5.486;2022-09-09T10:13:29;22.70;99.90
53880;DHT22;39791;53.184;5.486;2022-09-09T10:21:31;22.40;99.90
53880;DHT22;39791;53.184;5.486;2022-09-09T10:27:11;22.10;99.90
53880;DHT22;39791;53.184;5.486;2022-09-09T10:29:47;22.00;99.90
53880;DHT22;39791;53.184;5.486;2022-09-09T10:33:08;22.10;99.90
53880;DHT22;39791;53.184;5.486;2022-09-09T10:38:17;21.80;99.90
53880;DHT22;39791;53.184;5.486;2022-09-09T10:43:42;21.60;99.90
53880;DHT22;39791;53.184;5.486;2022-09-09T10:46:42;21.70;99.90
53880;DHT22;39791;53.184;5.486;2022-09-09T10:52:31;21.80;99.90
53880;DHT22;39791;53.184;5.486;2022-09-09T10:55:24;22.20;99.90
53880;DHT22;39791;53.184;5.486;2022-09-09T10:57:53;22.60;99.90
53880;DHT22;39791;53.184;5.486;2022-09-09T11:00:24;22.90;99.90
53880;DHT22;39791;53.184;5.486;2022-09-09T11:02:56;22.70;99.90
53880;DHT22;39791;53.184;5.486;2022-09-09T11:05:43;22.70;99.90
53880;DHT22;39791;53.184;5.486;2022-09-09T11:11:03;22.20;99.90
53880;DHT22;39791;53.184;5.486;2022-09-09T11:14:02;22.00;99.90
53880;DHT22;39791;53.184;5.486;2022-09-09T11:16:52;21.80;99.90
53880;DHT22;39791;53.184;5.486;2022-09-09T11:19:30;21.70;99.90
53880;DHT22;39791;53.184;5.486;2022-09-09T11:22:02;21.70;99.90
53880;DHT22;39791;53.184;5.486;2022-09-09T11:24:41;21.70;99.90
53880;DHT22;39791;53.184;5.486;2022-09-09T11:27:31;21.60;99.90
53880;DHT22;39791;53.184;5.486;2022-09-09T11:33:07;21.40;99.90
53880;DHT22;39791;53.184;5.486;2022-09-09T11:35:51;21.40;99.90
53880;DHT22;39791;53.184;5.486;2022-09-09T11:38:23;21.40;99.90
53880;DHT22;39791;53.184;5.486;2022-09-09T11:41:02;21.60;99.90
53880;DHT22;39791;53.184;5.486;2022-09-09T11:43:33;21.50;99.90
53880;DHT22;39791;53.184;5.486;2022-09-09T11:46:03;21.60;99.90
53880;DHT22;39791;53.184;5.486;2022-09-09T11:48:36;21.50;99.90
53880;DHT22;39791;53.184;5.486;2022-09-09T11:51:08;21.60;99.90
53880;DHT22;39791;53.184;5.486;2022-09-09T11:53:36;21.50;99.90
53880;DHT22;39791;53.184;5.486;2022-09-09T11:56:13;21.50;99.90
53880;DHT22;39791;53.184;5.486;2022-09-09T11:58:42;21.60;99.90
53880;DHT22;39791;53.184;5.486;2022-09-09T12:01:26;21.60;99.90
53880;DHT22;39791;53.184;5.486;2022-09-09T12:06:31;21.50;99.90
53880;DHT22;39791;53.184;5.486;2022-09-09T12:09:26;21.40;99.90
53880;DHT22;39791;53.184;5.486;2022-09-09T12:12:05;21.40;99.90
53880;DHT22;39791;53.184;5.486;2022-09-09T12:14:43;21.30;99.90
53880;DHT22;39791;53.184;5.486;2022-09-09T12:17:23;21.20;99.90
53880;DHT22;39791;53.184;5.486;2022-09-09T12:31:05;21.30;99.90
53880;DHT22;39791;53.184;5.486;2022-09-09T12:33:38;21.50;99.90
53880;DHT22;39791;53.184;5.486;2022-09-09T12:36:13;21.50;99.90
53880;DHT22;39791;53.184;5.486;2022-09-09T12:38:41;21.40;99.90
53880;DHT22;39791;53.184;5.486;2022-09-09T12:41:22;21.50;99.90
53880;DHT22;39791;53.184;5.486;2022-09-09T12:43:48;21.60;99.90
53880;DHT22;39791;53.184;5.486;2022-09-09T12:46:27;21.60;99.90
53880;DHT22;39791;53.184;5.486;2022-09-09T12:48:57;21.60;99.90
53880;DHT22;39791;53.184;5.486;2022-09-09T12:51:29;21.40;99.90
53880;DHT22;39791;53.184;5.486;2022-09-09T12:53:56;21.20;99.90
53880;DHT22;39791;53.184;5.486;2022-09-09T12:56:24;21.00;99.90
53880;DHT22;39791;53.184;5.486;2022-09-09T12:58:52;20.70;99.90
53880;DHT22;39791;53.184;5.486;2022-09-09T13:01:25;20.80;99.90
53880;DHT22;39791;53.184;5.486;2022-09-09T13:03:51;20.70;99.90
53880;DHT22;39791;53.184;5.486;2022-09-09T13:06:26;20.70;99.90
53880;DHT22;39791;53.184;5.486;2022-09-09T13:08:53;21.00;99.90
53880;DHT22;39791;53.184;5.486;2022-09-09T13:11:28;21.40;99.90
53880;DHT22;39791;53.184;5.486;2022-09-09T13:13:57;21.50;99.90
53880;DHT22;39791;53.184;5.486;2022-09-09T13:16:26;21.70;99.90
53880;DHT22;39791;53.184;5.486;2022-09-09T13:19:16;21.60;99.90
53880;DHT22;39791;53.184;5.486;2022-09-09T13:21:42;21.80;99.90
53880;DHT22;39791;53.184;5.486;2022-09-09T13:24:30;21.70;99.90
53880;DHT22;39791;53.184;5.486;2022-09-09T13:27:22;21.80;99.90
53880;DHT22;39791;53.184;5.486;2022-09-09T13:29:53;21.80;99.90
53880;DHT22;39791;53.184;5.486;2022-09-09T13:32:23;21.80;99.90
53880;DHT22;39791;53.184;5.486;2022-09-09T13:34:57;21.80;99.90
53880;DHT22;39791;53.184;5.486;2022-09-09T13:37:34;21.70;99.90
53880;DHT22;39791;53.184;5.486;2022-09-09T13:40:00;21.60;99.90
53880;DHT22;39791;53.184;5.486;2022-09-09T13:42:29;21.80;99.90
53880;DHT22;39791;53.184;5.486;2022-09-09T13:44:57;21.80;99.90
53880;DHT22;39791;53.184;5.486;2022-09-09T13:47:35;21.90;99.90
53880;DHT22;39791;53.184;5.486;2022-09-09T13:52:44;21.90;99.90
53880;DHT22;39791;53.184;5.486;2022-09-09T13:55:10;22.10;99.90
53880;DHT22;39791;53.184;5.486;2022-09-09T13:57:36;22.10;99.90
53880;DHT22;39791;53.184;5.486;2022-09-09T14:00:02;22.20;99.90
53880;DHT22;39791;53.184;5.486;2022-09-09T14:02:28;22.10;99.90
53880;DHT22;39791;53.184;5.486;2022-09-09T14:04:53;22.30;99.90
53880;DHT22;39791;53.184;5.486;2022-09-09T14:07:21;22.20;99.90
53880;DHT22;39791;53.184;5.486;2022-09-09T14:09:47;22.00;99.90
53880;DHT22;39791;53.184;5.486;2022-09-09T14:12:15;22.00;99.90
53880;DHT22;39791;53.184;5.486;2022-09-09T14:14:41;22.00;99.90
53880;DHT22;39791;53.184;5.486;2022-09-09T14:17:08;21.90;99.90
53880;DHT22;39791;53.184;5.486;2022-09-09T14:19:34;22.20;99.90
53880;DHT22;39791;53.184;5.486;2022-09-09T14:22:00;22.20;99.90
53880;DHT22;39791;53.184;5.486;2022-09-09T14:24:26;22.00;99.90
53880;DHT22;39791;53.184;5.486;2022-09-09T14:26:53;21.90;99.90
53880;DHT22;39791;53.184;5.486;2022-09-09T14:29:19;21.80;99.90
53880;DHT22;39791;53.184;5.486;2022-09-09T14:31:44;21.80;99.90
53880;DHT22;39791;53.184;5.486;2022-09-09T14:34:10;21.70;99.90
53880;DHT22;39791;53.184;5.486;2022-09-09T14:36:36;21.60;99.90
53880;DHT22;39791;53.184;5.486;2022-09-09T14:39:03;21.50;99.90
53880;DHT22;39791;53.184;5.486;2022-09-09T14:41:29;21.40;99.90
53880;DHT22;39791;53.184;5.486;2022-09-09T14:43:55;21.10;99.90
53880;DHT22;39791;53.184;5.486;2022-09-09T14:46:21;20.60;99.90
53880;DHT22;39791;53.184;5.486;2022-09-09T14:48:47;20.30;99.90
53880;DHT22;39791;53.184;5.486;2022-09-09T14:51:18;20.10;99.90
53880;DHT22;39791;53.184;5.486;2022-09-09T14:53:47;20.10;99.90
53880;DHT22;39791;53.184;5.486;2022-09-09T14:56:25;19.90;99.90
53880;DHT22;39791;53.184;5.486;2022-09-09T14:58:54;20.10;99.90
53880;DHT22;39791;53.184;5.486;2022-09-09T15:01:21;19.70;99.90
53880;DHT22;39791;53.184;5.486;2022-09-09T15:03:52;19.80;99.90
53880;DHT22;39791;53.184;5.486;2022-09-09T15:06:19;20.10;99.90
53880;DHT22;39791;53.184;5.486;2022-09-09T15:08:46;20.10;99.90
53880;DHT22;39791;53.184;5.486;2022-09-09T15:11:13;20.10;99.90
53880;DHT22;39791;53.184;5.486;2022-09-09T15:13:40;20.60;99.90
53880;DHT22;39791;53.184;5.486;2022-09-09T15:16:11;20.40;99.90
53880;DHT22;39791;53.184;5.486;2022-09-09T15:18:38;20.70;99.90
53880;DHT22;39791;53.184;5.486;2022-09-09T15:21:09;20.80;99.90
53880;DHT22;39791;53.184;5.486;2022-09-09T15:23:35;20.90;99.90
53880;DHT22;39791;53.184;5.486;2022-09-09T15:26:02;20.90;99.90
53880;DHT22;39791;53.184;5.486;2022-09-09T15:28:29;21.00;99.90
53880;DHT22;39791;53.184;5.486;2022-09-09T15:30:54;20.80;99.90
53880;DHT22;39791;53.184;5.486;2022-09-09T15:33:22;20.90;99.90
53880;DHT22;39791;53.184;5.486;2022-09-09T15:35:48;20.80;99.90
53880;DHT22;39791;53.184;5.486;2022-09-09T15:38:15;20.80;99.90
53880;DHT22;39791;53.184;5.486;2022-09-09T15:40:42;20.80;99.90
53880;DHT22;39791;53.184;5.486;2022-09-09T15:43:08;20.80;99.90
53880;DHT22;39791;53.184;5.486;2022-09-09T15:45:36;20.60;99.90
53880;DHT22;39791;53.184;5.486;2022-09-09T15:48:04;20.80;99.90
53880;DHT22;39791;53.184;5.486;2022-09-09T15:50:30;20.90;99.90
53880;DHT22;39791;53.184;5.486;2022-09-09T15:52:59;20.90;99.90
53880;DHT22;39791;53.184;5.486;2022-09-09T15:55:25;21.00;99.90
53880;DHT22;39791;53.184;5.486;2022-09-09T15:57:51;20.90;99.90
53880;DHT22;39791;53.184;5.486;2022-09-09T16:00:18;20.80;99.90
53880;DHT22;39791;53.184;5.486;2022-09-09T16:02:45;20.70;99.90
53880;DHT22;39791;53.184;5.486;2022-09-09T16:05:12;20.40;99.90
53880;DHT22;39791;53.184;5.486;2022-09-09T16:07:37;20.10;99.90
53880;DHT22;39791;53.184;5.486;2022-09-09T16:10:03;20.20;99.90
53880;DHT22;39791;53.184;5.486;2022-09-09T16:12:29;20.00;99.90
53880;DHT22;39791;53.184;5.486;2022-09-09T16:14:54;20.10;99.90
53880;DHT22;39791;53.184;5.486;2022-09-09T16:17:20;20.10;99.90
53880;DHT22;39791;53.184;5.486;2022-09-09T16:19:46;19.70;99.90
53880;DHT22;39791;53.184;5.486;2022-09-09T16:22:12;19.60;99.90
53880;DHT22;39791;53.184;5.486;2022-09-09T16:24:40;20.00;99.90
53880;DHT22;39791;53.184;5.486;2022-09-09T16:27:06;19.70;99.90
53880;DHT22;39791;53.184;5.486;2022-09-09T16:29:32;19.90;99.90
53880;DHT22;39791;53.184;5.486;2022-09-09T16:31:57;19.90;99.90
53880;DHT22;39791;53.184;5.486;2022-09-09T16:34:24;20.30;99.90
53880;DHT22;39791;53.184;5.486;2022-09-09T16:36:50;20.40;99.90
53880;DHT22;39791;53.184;5.486;2022-09-09T16:39:18;20.10;99.90
53880;DHT22;39791;53.184;5.486;2022-09-09T16:41:46;20.30;99.90
53880;DHT22;39791;53.184;5.486;2022-09-09T16:44:14;20.30;99.90
53880;DHT22;39791;53.184;5.486;2022-09-09T16:46:42;20.50;99.90
53880;DHT22;39791;53.184;5.486;2022-09-09T16:49:13;20.50;99.90
53880;DHT22;39791;53.184;5.486;2022-09-09T16:51:42;20.20;99.90
53880;DHT22;39791;53.184;5.486;2022-09-09T16:54:09;20.50;99.90
53880;DHT22;39791;53.184;5.486;2022-09-09T16:56:37;20.60;99.90
53880;DHT22;39791;53.184;5.486;2022-09-09T16:59:06;20.30;99.90
53880;DHT22;39791;53.184;5.486;2022-09-09T17:01:35;20.50;99.90
53880;DHT22;39791;53.184;5.486;2022-09-09T17:04:05;20.70;99.90
53880;DHT22;39791;53.184;5.486;2022-09-09T17:06:32;20.80;99.90
53880;DHT22;39791;53.184;5.486;2022-09-09T17:09:01;20.40;99.90